createdAt,value
2018-04-29T00:00:53.988Z,99853.42
2018-04-29T00:03:21.553Z,99847.50
2018-04-29T00:05:49.120Z,99849.33
2018-04-29T00:08:16.605Z,99858.41
2018-04-29T00:10:44.119Z,99856.76
2018-04-29T00:13:11.583Z,99859.02
2018-04-29T00:15:39.048Z,99861.02
2018-04-29T00:18:06.691Z,99858.34
2018-04-29T00:20:34.545Z,99862.75
2018-04-29T00:23:12.438Z,99867.91
2018-04-29T00:25:40.466Z,99877.28
2018-04-29T00:28:08.090Z,99873.03
2018-04-29T00:30:36.558Z,99872.09
2018-04-29T00:33:04.160Z,99871.28
2018-04-29T00:35:31.612Z,99862.72
2018-04-29T00:37:59.061Z,99865.38
2018-04-29T00:40:27.543Z,99867.34
2018-04-29T00:43:00.111Z,99870.19
2018-04-29T00:45:27.569Z,99863.66
2018-04-29T00:47:55.075Z,99869.27
2018-04-29T00:50:22.618Z,99874.47
2018-04-29T00:52:50.135Z,99877.67
2018-04-29T00:55:17.609Z,99878.64
2018-04-29T00:57:45.139Z,99877.22
2018-04-29T01:00:12.698Z,99872.80
2018-04-29T01:02:40.158Z,99866.38
2018-04-29T01:05:07.631Z,99861.40
2018-04-29T01:07:35.106Z,99854.13
2018-04-29T01:10:02.553Z,99847.80
2018-04-29T01:12:30.100Z,99847.94
2018-04-29T01:14:57.566Z,99850.63
2018-04-29T01:17:25.056Z,99860.30
2018-04-29T01:19:52.502Z,99858.59
2018-04-29T01:22:20.234Z,99853.80
2018-04-29T01:24:47.738Z,99843.92
2018-04-29T01:27:15.169Z,99826.46
2018-04-29T01:29:42.647Z,99814.09
2018-04-29T01:32:10.096Z,99815.85
2018-04-29T01:34:37.538Z,99817.53
2018-04-29T01:37:05.001Z,99815.02
2018-04-29T01:39:32.442Z,99817.63
2018-04-29T01:41:59.944Z,99814.27
2018-04-29T01:44:27.671Z,99812.59
2018-04-29T01:46:55.131Z,99814.19
2018-04-29T01:49:22.612Z,99815.95
2018-04-29T01:51:50.069Z,99831.20
2018-04-29T01:54:17.513Z,99834.11
2018-04-29T01:56:44.970Z,99844.78
2018-04-29T01:59:12.464Z,99850.92
2018-04-29T02:01:39.966Z,99859.67
2018-04-29T02:04:07.425Z,99870.45
2018-04-29T02:06:34.870Z,99871.26
2018-04-29T02:09:02.353Z,99873.68
2018-04-29T02:11:29.816Z,99879.30
2018-04-29T02:13:57.298Z,99876.07
2018-04-29T02:16:24.772Z,99867.38
2018-04-29T02:18:52.318Z,99858.59
2018-04-29T02:21:19.921Z,99842.66
2018-04-29T02:23:47.340Z,99841.09
2018-04-29T02:26:14.799Z,99852.24
2018-04-29T02:28:42.294Z,99852.89
2018-04-29T02:31:09.745Z,99864.07
2018-04-29T02:33:37.205Z,99854.55
2018-04-29T02:36:04.659Z,99854.87
2018-04-29T02:38:32.100Z,99845.96
2018-04-29T02:40:59.551Z,99836.47
2018-04-29T02:43:27.003Z,99842.64
2018-04-29T02:45:54.447Z,99852.41
2018-04-29T02:48:21.974Z,99853.27
2018-04-29T02:50:49.485Z,99854.07
2018-04-29T02:53:17.317Z,99850.75
2018-04-29T02:55:45.024Z,99852.41
2018-04-29T02:58:12.681Z,99855.78
2018-04-29T03:00:40.176Z,99845.27
2018-04-29T03:03:07.714Z,99851.16
2018-04-29T03:05:35.247Z,99849.81
2018-04-29T03:08:02.735Z,99844.23
2018-04-29T03:10:30.191Z,99844.06
2018-04-29T03:12:57.681Z,99839.13
2018-04-29T03:15:25.260Z,99848.00
2018-04-29T03:17:52.715Z,99851.07
2018-04-29T03:20:20.236Z,99852.41
2018-04-29T03:22:47.820Z,99856.58
2018-04-29T03:25:15.263Z,99861.32
2018-04-29T03:27:42.793Z,99873.48
2018-04-29T03:30:10.235Z,99871.91
2018-04-29T03:32:37.712Z,99872.71
2018-04-29T03:35:05.536Z,99877.34
2018-04-29T03:37:33.042Z,99890.25
2018-04-29T03:40:00.493Z,99883.55
2018-04-29T03:42:28.008Z,99878.97
2018-04-29T03:44:55.746Z,99874.41
2018-04-29T03:47:23.340Z,99879.90
2018-04-29T03:49:50.914Z,99877.73
2018-04-29T03:52:18.594Z,99878.81
2018-04-29T03:54:46.062Z,99875.64
2018-04-29T03:57:25.596Z,99869.33
2018-04-29T04:00:05.572Z,99875.38
2018-04-29T04:02:45.018Z,99867.84
2018-04-29T04:05:12.454Z,99878.91
2018-04-29T04:07:39.950Z,99882.13
2018-04-29T04:10:07.486Z,99880.16
2018-04-29T04:12:35.208Z,99886.08
2018-04-29T04:15:02.676Z,99881.55
2018-04-29T04:17:30.405Z,99884.21
2018-04-29T04:19:58.594Z,99891.38
2018-04-29T04:22:26.049Z,99880.23
2018-04-29T04:24:53.720Z,99875.91
2018-04-29T04:27:21.174Z,99879.59
2018-04-29T04:29:48.736Z,99889.98
2018-04-29T04:32:17.146Z,99890.46
2018-04-29T04:34:44.880Z,99887.88
2018-04-29T04:37:12.372Z,99882.11
2018-04-29T04:39:39.930Z,99890.92
2018-04-29T04:42:07.493Z,99880.45
2018-04-29T04:44:35.004Z,99873.50
2018-04-29T04:47:02.457Z,99866.88
2018-04-29T04:49:29.921Z,99868.94
2018-04-29T04:54:55.061Z,99884.27
2018-04-29T04:57:22.776Z,99885.12
2018-04-29T04:59:50.249Z,99897.87
2018-04-29T05:02:17.796Z,99915.08
2018-04-29T05:04:45.887Z,99913.50
2018-04-29T05:07:13.464Z,99912.95
2018-04-29T05:09:40.905Z,99912.84
2018-04-29T05:12:08.461Z,99909.99
2018-04-29T05:14:36.354Z,99919.76
2018-04-29T05:17:04.253Z,99920.16
2018-04-29T05:19:32.499Z,99914.72
2018-04-29T05:22:00.131Z,99901.66
2018-04-29T05:24:27.579Z,99887.50
2018-04-29T05:26:55.038Z,99876.20
2018-04-29T05:29:23.017Z,99852.25
2018-04-29T05:31:51.358Z,99845.88
2018-04-29T05:34:18.931Z,99849.74
2018-04-29T05:36:46.520Z,99857.77
2018-04-29T05:39:14.154Z,99856.58
2018-04-29T05:41:41.832Z,99850.54
2018-04-29T05:44:09.586Z,99866.02
2018-04-29T05:46:37.192Z,99873.08
2018-04-29T05:49:04.879Z,99886.97
2018-04-29T05:54:25.494Z,99933.67
2018-04-29T05:56:52.955Z,99921.23
2018-04-29T05:59:20.423Z,99893.55
2018-04-29T06:01:49.298Z,99882.79
2018-04-29T06:04:17.023Z,99870.33
2018-04-29T06:06:44.782Z,99853.34
2018-04-29T06:09:12.176Z,99868.22
2018-04-29T06:11:39.699Z,99862.70
2018-04-29T06:14:07.274Z,99840.62
2018-04-29T06:16:34.776Z,99820.93
2018-04-29T06:19:02.451Z,99828.33
2018-04-29T06:21:29.949Z,99814.87
2018-04-29T06:23:58.336Z,99783.56
2018-04-29T06:26:25.855Z,99798.87
2018-04-29T06:28:53.330Z,99776.47
2018-04-29T06:31:21.490Z,99766.14
2018-04-29T06:33:48.945Z,99767.89
2018-04-29T06:36:16.418Z,99795.41
2018-04-29T06:38:43.994Z,99810.77
2018-04-29T06:41:11.573Z,99823.04
2018-04-29T06:43:39.037Z,99835.94
2018-04-29T06:46:07.260Z,99824.41
2018-04-29T06:48:34.706Z,99822.04
2018-04-29T06:51:02.189Z,99816.75
2018-04-29T06:53:29.903Z,99810.32
2018-04-29T06:55:57.320Z,99811.27
2018-04-29T06:58:24.785Z,99793.95
2018-04-29T07:00:52.496Z,99789.75
2018-04-29T07:03:20.291Z,99789.09
2018-04-29T07:05:47.830Z,99787.52
2018-04-29T07:08:15.296Z,99780.86
2018-04-29T07:10:42.783Z,99776.49
2018-04-29T07:13:10.263Z,99766.86
2018-04-29T07:15:37.726Z,99777.59
2018-04-29T07:18:05.491Z,99780.11
2018-04-29T07:20:33.118Z,99782.02
2018-04-29T07:23:00.565Z,99779.38
2018-04-29T07:25:28.146Z,99779.47
2018-04-29T07:27:55.590Z,99780.77
2018-04-29T07:30:23.137Z,99790.88
2018-04-29T07:32:50.953Z,99794.23
2018-04-29T07:35:18.417Z,99794.47
2018-04-29T07:37:45.985Z,99795.91
2018-04-29T07:40:13.785Z,99801.88
2018-04-29T07:42:46.205Z,99803.42
2018-04-29T07:45:13.900Z,99803.17
2018-04-29T07:47:41.400Z,99802.03
2018-04-29T07:50:09.509Z,99801.05
2018-04-29T07:52:37.146Z,99791.28
2018-04-29T07:55:04.642Z,99796.78
2018-04-29T07:57:32.161Z,99794.79
2018-04-29T07:59:59.675Z,99800.50
2018-04-29T08:02:27.239Z,99797.05
2018-04-29T08:04:54.707Z,99798.00
2018-04-29T08:07:22.175Z,99794.94
2018-04-29T08:09:50.694Z,99787.33
2018-04-29T08:12:28.905Z,99790.04
2018-04-29T08:14:56.413Z,99801.41
2018-04-29T08:17:24.801Z,99800.82
2018-04-29T08:19:52.301Z,99801.97
2018-04-29T08:22:19.869Z,99800.88
2018-04-29T08:24:47.419Z,99808.41
2018-04-29T08:27:15.693Z,99799.35
2018-04-29T08:29:43.177Z,99793.28
2018-04-29T08:32:15.626Z,99791.64
2018-04-29T08:34:43.103Z,99781.84
2018-04-29T08:37:10.659Z,99775.41
2018-04-29T08:39:38.207Z,99768.77
2018-04-29T08:42:10.752Z,99781.52
2018-04-29T08:44:38.259Z,99787.70
2018-04-29T08:47:05.751Z,99787.31
2018-04-29T08:49:33.430Z,99785.59
2018-04-29T08:52:01.462Z,99784.17
2018-04-29T08:54:29.137Z,99787.00
2018-04-29T08:56:56.641Z,99787.50
2018-04-29T08:59:24.264Z,99778.73
2018-04-29T09:01:51.993Z,99777.51
2018-04-29T09:04:20.349Z,99770.03
2018-04-29T09:06:47.957Z,99769.72
2018-04-29T09:09:15.836Z,99772.59
2018-04-29T09:11:48.343Z,99772.02
2018-04-29T09:14:15.887Z,99769.80
2018-04-29T09:16:43.609Z,99763.20
2018-04-29T09:19:11.363Z,99759.63
2018-04-29T09:21:39.006Z,99762.63
2018-04-29T09:24:08.513Z,99757.50
2018-04-29T09:26:37.126Z,99757.80
2018-04-29T09:29:04.740Z,99758.45
2018-04-29T09:31:35.406Z,99755.55
2018-04-29T09:34:02.872Z,99757.61
2018-04-29T09:36:30.409Z,99756.95
2018-04-29T09:38:58.563Z,99756.67
2018-04-29T09:41:26.193Z,99750.53
2018-04-29T09:43:53.623Z,99749.36
2018-04-29T09:46:21.131Z,99756.33
2018-04-29T09:48:48.656Z,99750.14
2018-04-29T09:51:17.703Z,99747.79
2018-04-29T09:53:45.275Z,99751.05
2018-04-29T09:56:12.806Z,99752.93
2018-04-29T09:58:40.294Z,99755.76
2018-04-29T10:01:13.265Z,99753.77
2018-04-29T10:03:40.735Z,99761.77
2018-04-29T10:06:08.210Z,99755.23
2018-04-29T10:08:35.688Z,99756.05
2018-04-29T10:11:03.212Z,99756.57
2018-04-29T10:13:30.666Z,99752.05
2018-04-29T10:15:58.161Z,99754.53
2018-04-29T10:18:25.640Z,99753.62
2018-04-29T10:20:53.215Z,99750.89
2018-04-29T10:23:20.708Z,99744.95
2018-04-29T10:25:48.598Z,99742.19
2018-04-29T10:28:16.040Z,99745.78
2018-04-29T10:30:43.632Z,99739.25
2018-04-29T10:33:11.095Z,99741.89
2018-04-29T10:35:38.557Z,99733.09
2018-04-29T10:38:09.658Z,99730.48
2018-04-29T10:40:37.176Z,99727.53
2018-04-29T10:43:04.706Z,99724.77
2018-04-29T10:45:32.222Z,99728.24
2018-04-29T10:47:59.698Z,99722.16
2018-04-29T10:50:27.888Z,99735.36
2018-04-29T10:52:55.324Z,99723.36
2018-04-29T10:55:22.780Z,99730.95
2018-04-29T10:57:50.245Z,99726.94
2018-04-29T11:00:17.695Z,99725.02
2018-04-29T11:02:45.166Z,99722.11
2018-04-29T11:05:12.602Z,99719.58
2018-04-29T11:07:40.091Z,99719.78
2018-04-29T11:10:07.601Z,99711.23
2018-04-29T11:12:35.070Z,99703.59
2018-04-29T11:15:02.518Z,99704.90
2018-04-29T11:17:29.950Z,99700.95
2018-04-29T11:19:57.390Z,99695.74
2018-04-29T11:22:24.882Z,99695.48
2018-04-29T11:24:53.982Z,99692.45
2018-04-29T11:27:21.420Z,99687.28
2018-04-29T11:29:48.930Z,99683.58
2018-04-29T11:32:16.333Z,99677.92
2018-04-29T11:34:43.842Z,99672.42
2018-04-29T11:37:12.190Z,99664.81
2018-04-29T11:39:39.629Z,99658.42
2018-04-29T11:42:07.089Z,99662.62
2018-04-29T11:44:34.566Z,99659.09
2018-04-29T11:47:02.089Z,99654.09
2018-04-29T11:49:29.529Z,99643.02
2018-04-29T11:51:56.532Z,99642.06
2018-04-29T11:54:23.703Z,99651.11
2018-04-29T11:56:50.727Z,99638.69
2018-04-29T11:59:17.721Z,99644.08
2018-04-29T12:01:50.273Z,99647.81
2018-04-29T12:04:17.685Z,99635.13
2018-04-29T12:06:45.253Z,99629.80
2018-04-29T12:09:12.740Z,99628.09
2018-04-29T12:11:40.255Z,99626.91
2018-04-29T12:14:07.704Z,99612.77
2018-04-29T12:16:35.279Z,99607.18
2018-04-29T12:19:02.731Z,99610.34
2018-04-29T12:21:30.219Z,99602.19
2018-04-29T12:23:57.789Z,99605.82
2018-04-29T12:26:25.296Z,99604.70
2018-04-29T12:28:52.746Z,99601.67
2018-04-29T12:31:20.173Z,99598.72
2018-04-29T12:33:47.615Z,99590.20
2018-04-29T12:36:15.062Z,99597.11
2018-04-29T12:38:42.554Z,99590.11
2018-04-29T12:41:10.219Z,99591.36
2018-04-29T12:43:37.755Z,99587.81
2018-04-29T12:46:05.310Z,99591.08
2018-04-29T12:48:32.768Z,99587.52
2018-04-29T12:51:00.226Z,99587.63
2018-04-29T12:53:28.489Z,99586.80
2018-04-29T12:55:56.107Z,99586.59
2018-04-29T12:58:23.540Z,99574.55
2018-04-29T13:00:50.997Z,99567.91
2018-04-29T13:03:23.537Z,99572.73
2018-04-29T13:05:51.063Z,99570.03
2018-04-29T13:08:18.851Z,99567.86
2018-04-29T13:10:46.346Z,99567.48
2018-04-29T13:13:18.973Z,99562.98
2018-04-29T13:15:46.591Z,99557.25
2018-04-29T13:18:14.055Z,99556.67
2018-04-29T13:20:41.839Z,99551.02
2018-04-29T13:23:09.430Z,99551.02
2018-04-29T13:25:37.505Z,99545.23
2018-04-29T13:28:05.709Z,99544.94
2018-04-29T13:30:33.187Z,99546.02
2018-04-29T13:33:00.744Z,99537.02
2018-04-29T13:35:28.964Z,99529.85
2018-04-29T13:37:56.450Z,99524.59
2018-04-29T13:40:23.925Z,99523.14
2018-04-29T13:42:51.390Z,99519.61
2018-04-29T13:45:18.875Z,99517.08
2018-04-29T13:47:46.328Z,99516.20
2018-04-29T13:50:13.766Z,99510.16
2018-04-29T13:52:55.471Z,99508.66
2018-04-29T13:55:22.936Z,99501.93
2018-04-29T13:57:50.460Z,99504.84
2018-04-29T14:00:17.920Z,99497.70
2018-04-29T14:05:38.626Z,99493.31
2018-04-29T14:08:06.073Z,99492.88
2018-04-29T14:10:33.564Z,99484.13
2018-04-29T14:13:01.082Z,99487.67
2018-04-29T14:15:28.482Z,99488.65
2018-04-29T14:17:56.009Z,99480.02
2018-04-29T14:20:23.522Z,99486.08
2018-04-29T14:22:56.040Z,99477.28
2018-04-29T14:25:23.552Z,99472.47
2018-04-29T14:27:51.192Z,99472.21
2018-04-29T14:30:18.632Z,99472.73
2018-04-29T14:32:49.127Z,99464.53
2018-04-29T14:35:16.843Z,99465.43
2018-04-29T14:37:45.251Z,99456.49
2018-04-29T14:40:12.764Z,99458.06
2018-04-29T14:42:40.313Z,99454.78
2018-04-29T14:45:07.792Z,99453.82
2018-04-29T14:47:35.263Z,99450.55
2018-04-29T14:50:02.740Z,99446.11
2018-04-29T14:52:30.186Z,99448.48
2018-04-29T14:54:57.655Z,99440.70
2018-04-29T14:57:25.133Z,99431.58
2018-04-29T14:59:52.601Z,99427.78
2018-04-29T15:02:20.141Z,99417.23
2018-04-29T15:04:47.566Z,99412.93
2018-04-29T15:07:15.017Z,99410.38
2018-04-29T15:09:42.452Z,99411.36
2018-04-29T15:12:09.948Z,99400.22
2018-04-29T15:14:37.403Z,99395.80
2018-04-29T15:17:04.851Z,99396.92
2018-04-29T15:19:43.957Z,99390.55
2018-04-29T15:22:11.464Z,99391.87
2018-04-29T15:24:38.973Z,99393.29
2018-04-29T15:27:06.500Z,99389.90
2018-04-29T15:29:34.024Z,99381.77
2018-04-29T15:32:01.462Z,99380.42
2018-04-29T15:34:29.044Z,99381.02
2018-04-29T15:36:56.493Z,99371.70
2018-04-29T15:39:23.952Z,99364.53
2018-04-29T15:41:51.470Z,99363.19
2018-04-29T15:44:18.978Z,99353.52
2018-04-29T15:46:48.126Z,99352.00
2018-04-29T15:49:15.657Z,99358.02
2018-04-29T15:51:43.804Z,99348.91
2018-04-29T15:54:12.748Z,99344.83
2018-04-29T15:56:40.251Z,99335.91
2018-04-29T15:59:07.705Z,99337.89
2018-04-29T16:01:35.256Z,99334.42
2018-04-29T16:04:02.755Z,99334.62
2018-04-29T16:06:30.250Z,99323.55
2018-04-29T16:08:58.362Z,99334.58
2018-04-29T16:11:25.871Z,99322.38
2018-04-29T16:13:53.414Z,99322.34
2018-04-29T16:16:21.015Z,99315.61
2018-04-29T16:18:48.531Z,99319.70
2018-04-29T16:21:16.123Z,99308.84
2018-04-29T16:23:43.563Z,99310.05
2018-04-29T16:26:11.047Z,99305.59
2018-04-29T16:28:38.505Z,99306.75
2018-04-29T16:31:07.045Z,99302.93
2018-04-29T16:33:34.494Z,99298.66
2018-04-29T16:36:02.037Z,99291.87
2018-04-29T16:38:29.961Z,99285.45
2018-04-29T16:40:59.669Z,99283.92
2018-04-29T16:43:37.825Z,99280.80
2018-04-29T16:46:05.277Z,99278.48
2018-04-29T16:48:32.739Z,99271.30
2018-04-29T16:51:00.708Z,99272.63
2018-04-29T16:53:42.495Z,99272.47
2018-04-29T16:56:09.977Z,99266.45
2018-04-29T16:58:37.933Z,99262.80
2018-04-29T17:01:05.439Z,99257.56
2018-04-29T17:03:33.028Z,99247.31
2018-04-29T17:06:00.499Z,99239.56
2018-04-29T17:08:28.012Z,99239.02
2018-04-29T17:10:55.566Z,99241.55
2018-04-29T17:13:42.327Z,99232.08
2018-04-29T17:16:09.833Z,99225.09
2018-04-29T17:18:37.673Z,99226.66
2018-04-29T17:21:05.199Z,99218.52
2018-04-29T17:23:32.689Z,99220.09
2018-04-29T17:26:00.437Z,99212.90
2018-04-29T17:28:28.203Z,99220.88
2018-04-29T17:30:55.787Z,99217.97
2018-04-29T17:33:24.468Z,99220.48
2018-04-29T17:35:51.953Z,99220.50
2018-04-29T17:38:19.422Z,99214.91
2018-04-29T17:40:46.896Z,99219.55
2018-04-29T17:43:14.405Z,99218.59
2018-04-29T17:45:41.959Z,99221.14
2018-04-29T17:48:10.574Z,99224.40
2018-04-29T17:50:38.031Z,99213.94
2018-04-29T17:53:05.825Z,99211.62
2018-04-29T17:55:33.442Z,99212.59
2018-04-29T17:58:01.122Z,99213.39
2018-04-29T18:00:29.413Z,99211.84
2018-04-29T18:02:58.719Z,99199.26
2018-04-29T18:05:26.399Z,99203.50
2018-04-29T18:07:53.950Z,99200.42
2018-04-29T18:10:21.525Z,99205.48
2018-04-29T18:12:50.951Z,99204.50
2018-04-29T18:15:18.442Z,99200.47
2018-04-29T18:17:45.945Z,99200.07
2018-04-29T18:20:14.011Z,99194.64
2018-04-29T18:22:41.583Z,99197.16
2018-04-29T18:25:09.408Z,99198.16
2018-04-29T18:27:38.103Z,99197.39
2018-04-29T18:30:07.505Z,99195.45
2018-04-29T18:32:35.244Z,99193.13
2018-04-29T18:35:02.976Z,99189.45
2018-04-29T18:37:30.497Z,99197.03
2018-04-29T18:40:01.147Z,99194.52
2018-04-29T18:42:52.347Z,99193.76
2018-04-29T18:45:19.843Z,99193.75
2018-04-29T18:47:47.460Z,99189.48
2018-04-29T18:50:14.999Z,99190.28
2018-04-29T18:52:42.456Z,99193.55
2018-04-29T18:55:09.959Z,99194.52
2018-04-29T18:57:37.559Z,99196.45
2018-04-29T19:00:05.330Z,99184.82
2018-04-29T19:02:32.899Z,99183.06
2018-04-29T19:05:00.430Z,99183.09
2018-04-29T19:07:27.990Z,99182.89
2018-04-29T19:09:55.685Z,99177.87
2018-04-29T19:12:23.222Z,99179.42
2018-04-29T19:14:50.796Z,99178.82
2018-04-29T19:17:18.262Z,99177.30
2018-04-29T19:19:45.766Z,99178.84
2018-04-29T19:22:13.228Z,99169.16
2018-04-29T19:24:40.706Z,99165.88
2018-04-29T19:27:08.451Z,99157.74
2018-04-29T19:29:36.907Z,99152.52
2018-04-29T19:32:04.410Z,99151.95
2018-04-29T19:34:32.040Z,99150.98
2018-04-29T19:36:59.558Z,99148.06
2018-04-29T19:39:27.094Z,99144.39
2018-04-29T19:41:54.557Z,99148.84
2018-04-29T19:44:22.047Z,99151.16
2018-04-29T19:46:49.623Z,99143.62
2018-04-29T19:49:17.170Z,99147.87
2018-04-29T19:51:44.730Z,99141.28
2018-04-29T19:54:12.312Z,99134.91
2018-04-29T19:56:39.975Z,99128.70
2018-04-29T19:59:09.046Z,99130.60
2018-04-29T20:01:36.713Z,99127.13
2018-04-29T20:04:04.215Z,99128.46
2018-04-29T20:06:31.753Z,99127.13
2018-04-29T20:08:59.997Z,99122.28
2018-04-29T20:11:27.612Z,99116.09
2018-04-29T20:13:55.117Z,99100.98
2018-04-29T20:16:23.111Z,99102.74
2018-04-29T20:18:50.574Z,99099.84
2018-04-29T20:21:18.083Z,99099.09
2018-04-29T20:23:45.614Z,99096.17
2018-04-29T20:26:13.077Z,99088.80
2018-04-29T20:28:40.619Z,99095.20
2018-04-29T20:31:08.167Z,99090.35
2018-04-29T20:33:36.117Z,99087.08
2018-04-29T20:36:04.391Z,99081.27
2018-04-29T20:38:31.960Z,99074.49
2018-04-29T20:40:59.457Z,99072.19
2018-04-29T20:43:36.944Z,99069.47
2018-04-29T20:46:05.224Z,99061.14
2018-04-29T20:48:32.749Z,99058.83
2018-04-29T20:51:00.167Z,99050.91
2018-04-29T20:53:37.445Z,99053.80
2018-04-29T20:56:04.951Z,99048.37
2018-04-29T20:58:32.443Z,99042.96
2018-04-29T21:00:59.925Z,99040.85
2018-04-29T21:03:27.718Z,99038.70
2018-04-29T21:05:55.256Z,99033.11
2018-04-29T21:08:22.755Z,99027.50
2018-04-29T21:10:50.272Z,99027.51
2018-04-29T21:13:18.500Z,99026.14
2018-04-29T21:15:45.971Z,99026.33
2018-04-29T21:18:13.422Z,99022.84
2018-04-29T21:20:40.941Z,99017.44
2018-04-29T21:23:08.390Z,99018.02
2018-04-29T21:25:35.852Z,99003.33
2018-04-29T21:28:03.383Z,99000.58
2018-04-29T21:33:10.623Z,98998.22
2018-04-29T21:35:38.320Z,98993.81
2018-04-29T21:38:05.831Z,98988.75
2018-04-29T21:40:33.328Z,98987.23
2018-04-29T21:43:00.829Z,98982.97
2018-04-29T21:45:28.366Z,98981.05
2018-04-29T21:47:55.829Z,98971.00
2018-04-29T21:50:23.370Z,98972.14
2018-04-29T21:52:50.894Z,98966.72
2018-04-29T21:55:18.378Z,98974.84
2018-04-29T21:57:46.165Z,98964.03
2018-04-29T22:00:13.617Z,98956.86
2018-04-29T22:02:41.213Z,98958.20
2018-04-29T22:05:08.798Z,98957.42
2018-04-29T22:07:36.251Z,98952.98
2018-04-29T22:10:03.750Z,98947.97
2018-04-29T22:12:31.276Z,98944.09
2018-04-29T22:14:58.994Z,98933.83
2018-04-29T22:17:26.452Z,98929.58
2018-04-29T22:19:54.002Z,98926.29
2018-04-29T22:22:21.535Z,98925.91
2018-04-29T22:24:49.828Z,98923.40
2018-04-29T22:27:17.388Z,98917.98
2018-04-29T22:29:45.836Z,98918.55
2018-04-29T22:32:13.398Z,98907.88
2018-04-29T22:34:48.848Z,98896.69
2018-04-29T22:37:16.411Z,98899.73
2018-04-29T22:39:43.806Z,98892.79
2018-04-29T22:42:26.282Z,98886.99
2018-04-29T22:44:53.894Z,98887.17
2018-04-29T22:47:21.402Z,98879.45
2018-04-29T22:49:48.911Z,98871.34
2018-04-29T22:52:16.436Z,98870.55
2018-04-29T22:54:43.972Z,98872.47
2018-04-29T22:57:12.308Z,98869.55
2018-04-29T22:59:40.526Z,98865.33
2018-04-29T23:02:08.308Z,98850.84
2018-04-29T23:04:35.754Z,98842.16
2018-04-29T23:07:04.753Z,98846.78
2018-04-29T23:09:32.580Z,98834.44
2018-04-29T23:12:00.067Z,98829.61
2018-04-29T23:14:27.642Z,98822.27
2018-04-29T23:16:55.373Z,98813.97
2018-04-29T23:19:23.042Z,98813.34
2018-04-29T23:21:51.458Z,98806.22
2018-04-29T23:24:18.981Z,98805.05
2018-04-29T23:26:49.276Z,98792.88
2018-04-29T23:29:17.952Z,98789.59
2018-04-29T23:31:45.476Z,98784.56
2018-04-29T23:34:13.416Z,98775.50
2018-04-29T23:36:40.951Z,98776.26
2018-04-29T23:39:09.048Z,98774.35
2018-04-29T23:41:37.292Z,98765.25
2018-04-29T23:44:05.702Z,98762.15
2018-04-29T23:46:33.915Z,98755.18
2018-04-29T23:49:07.072Z,98756.17
2018-04-29T23:51:38.380Z,98751.33
2018-04-29T23:54:05.884Z,98750.78
2018-04-29T23:56:33.363Z,98743.05
2018-04-29T23:59:03.016Z,98743.03
